createdAt,value
2019-02-03T00:00:14.382Z,2.24
2019-02-03T00:01:14.374Z,2.18
2019-02-03T00:02:14.366Z,2.20
2019-02-03T00:03:14.355Z,2.22
2019-02-03T00:04:14.347Z,2.17
2019-02-03T00:05:14.339Z,2.17
2019-02-03T00:06:14.330Z,2.20
2019-02-03T00:07:14.322Z,2.17
2019-02-03T00:08:14.314Z,2.22
2019-02-03T00:09:14.306Z,2.15
2019-02-03T00:10:14.296Z,2.24
2019-02-03T00:11:14.289Z,2.20
2019-02-03T00:12:14.280Z,2.20
2019-02-03T00:13:14.272Z,2.18
2019-02-03T00:14:14.286Z,2.14
2019-02-03T00:15:14.254Z,2.18
2019-02-03T00:16:14.247Z,2.24
2019-02-03T00:17:14.237Z,2.18
2019-02-03T00:18:14.232Z,2.22
2019-02-03T00:19:14.221Z,2.13
2019-02-03T00:20:14.211Z,2.25
2019-02-03T00:21:14.204Z,2.17
2019-02-03T00:22:14.195Z,2.15
2019-02-03T00:23:14.184Z,2.20
2019-02-03T00:24:14.277Z,2.18
2019-02-03T00:25:14.167Z,2.15
2019-02-03T00:26:14.161Z,2.22
2019-02-03T00:27:14.150Z,2.14
2019-02-03T00:28:14.143Z,2.08
2019-02-03T00:29:14.134Z,2.18
2019-02-03T00:30:14.127Z,2.22
2019-02-03T00:31:14.116Z,2.18
2019-02-03T00:32:14.109Z,2.14
2019-02-03T00:33:14.099Z,2.15
2019-02-03T00:34:14.092Z,2.25
2019-02-03T00:35:14.083Z,2.15
2019-02-03T00:36:14.074Z,2.18
2019-02-03T00:37:16.572Z,2.20
2019-02-03T00:38:22.961Z,2.13
2019-02-03T00:39:14.051Z,2.14
2019-02-03T00:40:14.040Z,2.20
2019-02-03T00:41:14.106Z,2.22
2019-02-03T00:42:14.024Z,2.17
2019-02-03T00:43:14.015Z,2.22
2019-02-03T00:44:14.006Z,2.18
2019-02-03T00:45:14.000Z,2.10
2019-02-03T00:46:13.990Z,2.14
2019-02-03T00:47:13.981Z,2.17
2019-02-03T00:48:13.972Z,2.17
2019-02-03T00:49:13.964Z,2.24
2019-02-03T00:50:13.956Z,2.14
2019-02-03T00:51:13.948Z,2.20
2019-02-03T00:52:13.938Z,2.17
2019-02-03T00:53:13.931Z,2.24
2019-02-03T00:54:13.924Z,2.25
2019-02-03T00:55:13.912Z,2.24
2019-02-03T00:56:13.904Z,2.07
2019-02-03T00:57:13.897Z,2.13
2019-02-03T00:58:13.894Z,2.10
2019-02-03T00:59:13.880Z,2.07
2019-02-03T01:00:13.871Z,2.07
2019-02-03T01:01:13.863Z,2.08
2019-02-03T01:02:13.855Z,2.02
2019-02-03T01:03:13.844Z,2.07
2019-02-03T01:04:13.838Z,2.10
2019-02-03T01:05:13.829Z,2.13
2019-02-03T01:06:13.819Z,2.20
2019-02-03T01:07:13.810Z,2.17
2019-02-03T01:08:13.802Z,2.08
2019-02-03T01:09:13.796Z,2.07
2019-02-03T01:10:13.786Z,2.07
2019-02-03T01:11:13.777Z,2.08
2019-02-03T01:12:13.768Z,2.02
2019-02-03T01:13:13.759Z,2.06
2019-02-03T01:14:13.751Z,2.08
2019-02-03T01:15:13.742Z,2.06
2019-02-03T01:16:13.737Z,2.04
2019-02-03T01:17:13.725Z,2.02
2019-02-03T01:18:13.717Z,2.04
2019-02-03T01:19:13.708Z,2.07
2019-02-03T01:20:13.699Z,2.06
2019-02-03T01:21:13.691Z,2.02
2019-02-03T01:22:13.681Z,2.07
2019-02-03T01:23:13.672Z,2.07
2019-02-03T01:24:13.663Z,2.07
2019-02-03T01:25:13.656Z,2.02
2019-02-03T01:26:13.647Z,2.00
2019-02-03T01:27:13.638Z,1.99
2019-02-03T01:28:13.630Z,2.04
2019-02-03T01:29:13.620Z,2.08
2019-02-03T01:30:13.612Z,2.06
2019-02-03T01:31:13.603Z,2.02
2019-02-03T01:32:13.594Z,2.08
2019-02-03T01:33:13.586Z,2.07
2019-02-03T01:34:13.578Z,2.08
2019-02-03T01:35:13.568Z,2.11
2019-02-03T01:36:13.560Z,2.08
2019-02-03T01:37:13.551Z,2.06
2019-02-03T01:38:13.542Z,2.00
2019-02-03T01:39:13.532Z,2.07
2019-02-03T01:40:13.524Z,2.08
2019-02-03T01:41:13.516Z,2.04
2019-02-03T01:42:13.507Z,2.06
2019-02-03T01:43:13.499Z,2.07
2019-02-03T01:44:13.489Z,2.08
2019-02-03T01:45:13.482Z,2.07
2019-02-03T01:46:13.473Z,2.04
2019-02-03T01:47:13.473Z,2.04
2019-02-03T01:48:13.455Z,2.07
2019-02-03T01:49:13.447Z,2.11
2019-02-03T01:50:13.439Z,2.04
2019-02-03T01:51:13.429Z,2.00
2019-02-03T01:52:13.421Z,2.07
2019-02-03T01:53:13.412Z,2.06
2019-02-03T01:54:13.405Z,2.02
2019-02-03T01:55:13.395Z,2.08
2019-02-03T01:56:13.387Z,2.06
2019-02-03T01:57:13.377Z,2.00
2019-02-03T01:58:13.369Z,2.08
2019-02-03T01:59:13.360Z,2.07
2019-02-03T02:00:13.354Z,2.07
2019-02-03T02:01:13.344Z,2.07
2019-02-03T02:02:13.335Z,2.06
2019-02-03T02:03:13.327Z,2.06
2019-02-03T02:04:13.318Z,2.07
2019-02-03T02:05:13.312Z,2.06
2019-02-03T02:06:13.302Z,2.02
2019-02-03T02:07:13.291Z,2.07
2019-02-03T02:08:13.283Z,2.04
2019-02-03T02:09:13.275Z,2.06
2019-02-03T02:10:13.268Z,2.08
2019-02-03T02:11:13.258Z,2.08
2019-02-03T02:12:13.249Z,2.02
2019-02-03T02:13:13.241Z,2.07
2019-02-03T02:14:13.233Z,2.02
2019-02-03T02:15:13.223Z,2.07
2019-02-03T02:16:13.214Z,2.02
2019-02-03T02:17:13.209Z,2.06
2019-02-03T02:18:13.197Z,2.06
2019-02-03T02:19:13.188Z,2.04
2019-02-03T02:20:13.179Z,2.11
2019-02-03T02:21:13.170Z,2.07
2019-02-03T02:22:13.162Z,2.11
2019-02-03T02:23:13.154Z,2.04
2019-02-03T02:24:13.145Z,2.10
2019-02-03T02:25:13.137Z,2.06
2019-02-03T02:26:13.127Z,2.02
2019-02-03T02:27:13.118Z,2.06
2019-02-03T02:28:13.109Z,2.11
2019-02-03T02:29:13.102Z,2.08
2019-02-03T02:30:13.093Z,2.02
2019-02-03T02:31:13.084Z,2.08
2019-02-03T02:32:13.079Z,2.08
2019-02-03T02:33:13.067Z,2.08
2019-02-03T02:34:13.065Z,2.14
2019-02-03T02:35:13.050Z,1.95
2019-02-03T02:36:13.045Z,2.00
2019-02-03T02:37:13.034Z,1.95
2019-02-03T02:38:13.026Z,2.00
2019-02-03T02:39:13.019Z,2.07
2019-02-03T02:40:13.503Z,1.92
2019-02-03T02:41:12.998Z,1.97
2019-02-03T02:42:12.992Z,1.97
2019-02-03T02:43:12.980Z,1.97
2019-02-03T02:44:12.969Z,1.95
2019-02-03T02:45:12.962Z,2.00
2019-02-03T02:46:12.953Z,1.99
2019-02-03T02:47:12.944Z,2.00
2019-02-03T02:48:12.936Z,1.94
2019-02-03T02:49:12.927Z,1.89
2019-02-03T02:50:12.918Z,1.91
2019-02-03T02:51:12.909Z,1.95
2019-02-03T02:52:12.898Z,1.95
2019-02-03T02:53:12.891Z,1.99
2019-02-03T02:54:12.881Z,1.92
2019-02-03T02:55:12.875Z,1.78
2019-02-03T02:56:12.863Z,1.80
2019-02-03T02:57:12.855Z,1.84
2019-02-03T02:58:12.845Z,1.97
2019-02-03T02:59:12.839Z,1.84
2019-02-03T03:00:12.826Z,1.88
2019-02-03T03:01:12.818Z,1.87
2019-02-03T03:02:12.810Z,1.84
2019-02-03T03:03:12.801Z,1.84
2019-02-03T03:04:12.794Z,1.84
2019-02-03T03:05:12.792Z,1.85
2019-02-03T03:06:12.779Z,1.88
2019-02-03T03:07:12.764Z,1.81
2019-02-03T03:08:19.063Z,1.84
2019-02-03T03:09:12.749Z,1.81
2019-02-03T03:10:12.744Z,1.70
2019-02-03T03:11:12.728Z,1.71
2019-02-03T03:12:12.718Z,1.76
2019-02-03T03:13:12.710Z,1.77
2019-02-03T03:14:12.700Z,1.73
2019-02-03T03:15:12.699Z,1.77
2019-02-03T03:16:12.683Z,1.71
2019-02-03T03:17:12.674Z,1.80
2019-02-03T03:18:12.665Z,1.76
2019-02-03T03:19:12.662Z,1.77
2019-02-03T03:20:12.646Z,1.74
2019-02-03T03:21:12.637Z,1.70
2019-02-03T03:22:12.627Z,1.74
2019-02-03T03:23:12.620Z,1.73
2019-02-03T03:24:12.613Z,1.73
2019-02-03T03:25:12.601Z,1.76
2019-02-03T03:26:12.593Z,1.68
2019-02-03T03:27:12.595Z,1.74
2019-02-03T03:28:12.574Z,1.68
2019-02-03T03:29:12.569Z,1.63
2019-02-03T03:30:12.558Z,1.62
2019-02-03T03:31:12.548Z,1.63
2019-02-03T03:32:12.545Z,1.67
2019-02-03T03:33:12.536Z,1.59
2019-02-03T03:34:12.517Z,1.59
2019-02-03T03:35:12.510Z,1.56
2019-02-03T03:36:12.499Z,1.59
2019-02-03T03:37:12.490Z,1.58
2019-02-03T03:38:12.480Z,1.55
2019-02-03T03:39:12.473Z,1.56
2019-02-03T03:40:12.462Z,1.52
2019-02-03T03:41:12.454Z,1.58
2019-02-03T03:42:12.444Z,1.52
2019-02-03T03:43:12.434Z,1.56
2019-02-03T03:44:12.425Z,1.48
2019-02-03T03:45:12.415Z,1.42
2019-02-03T03:46:12.410Z,1.41
2019-02-03T03:47:12.399Z,1.38
2019-02-03T03:48:12.390Z,1.56
2019-02-03T03:49:12.380Z,1.48
2019-02-03T03:50:12.371Z,1.50
2019-02-03T03:51:12.360Z,1.48
2019-02-03T03:52:12.469Z,1.53
2019-02-03T03:53:12.342Z,1.49
2019-02-03T03:54:12.333Z,1.41
2019-02-03T03:55:12.325Z,1.58
2019-02-03T03:56:12.314Z,1.59
2019-02-03T03:57:12.304Z,1.52
2019-02-03T03:58:12.297Z,1.48
2019-02-03T03:59:12.285Z,1.44
2019-02-03T04:00:12.305Z,1.48
2019-02-03T04:01:12.268Z,1.50
2019-02-03T04:02:12.258Z,1.55
2019-02-03T04:03:12.247Z,1.53
2019-02-03T04:04:12.239Z,1.41
2019-02-03T04:05:12.229Z,1.44
2019-02-03T04:06:12.240Z,1.52
2019-02-03T04:07:12.227Z,1.41
2019-02-03T04:08:12.333Z,1.34
2019-02-03T04:09:12.194Z,1.42
2019-02-03T04:10:12.182Z,1.41
2019-02-03T04:11:12.174Z,1.42
2019-02-03T04:12:12.166Z,1.41
2019-02-03T04:13:12.157Z,1.35
2019-02-03T04:14:12.144Z,1.40
2019-02-03T04:15:12.136Z,1.38
2019-02-03T04:16:12.129Z,1.42
2019-02-03T04:17:12.119Z,1.41
2019-02-03T04:18:12.107Z,1.42
2019-02-03T04:19:12.099Z,1.42
2019-02-03T04:20:12.093Z,1.37
2019-02-03T04:21:12.082Z,1.40
2019-02-03T04:22:12.070Z,1.34
2019-02-03T04:23:12.059Z,1.28
2019-02-03T04:24:12.050Z,1.32
2019-02-03T04:25:12.044Z,1.34
2019-02-03T04:26:12.032Z,1.38
2019-02-03T04:27:12.023Z,1.38
2019-02-03T04:28:12.015Z,1.31
2019-02-03T04:29:12.415Z,1.34
2019-02-03T04:30:11.995Z,1.30
2019-02-03T04:31:11.994Z,1.26
2019-02-03T04:32:11.975Z,1.41
2019-02-03T04:33:11.967Z,1.40
2019-02-03T04:34:11.958Z,1.37
2019-02-03T04:35:11.950Z,1.45
2019-02-03T04:36:11.939Z,1.38
2019-02-03T04:37:11.928Z,1.53
2019-02-03T04:38:11.919Z,1.53
2019-02-03T04:39:11.910Z,1.53
2019-02-03T04:40:11.901Z,1.50
2019-02-03T04:41:11.890Z,1.49
2019-02-03T04:42:11.881Z,1.58
2019-02-03T04:43:11.873Z,1.53
2019-02-03T04:44:11.864Z,1.56
2019-02-03T04:45:11.854Z,1.59
2019-02-03T04:46:11.845Z,1.50
2019-02-03T04:47:11.834Z,1.55
2019-02-03T04:48:11.824Z,1.53
2019-02-03T04:49:11.814Z,1.53
2019-02-03T04:50:11.806Z,1.50
2019-02-03T04:51:11.796Z,1.53
2019-02-03T04:52:11.790Z,1.45
2019-02-03T04:53:11.779Z,1.55
2019-02-03T04:54:11.785Z,1.52
2019-02-03T04:55:11.760Z,1.50
2019-02-03T04:56:11.754Z,1.52
2019-02-03T04:57:11.742Z,1.53
2019-02-03T04:58:11.733Z,1.49
2019-02-03T04:59:11.723Z,1.49
2019-02-03T05:00:11.713Z,1.56
2019-02-03T05:01:11.705Z,1.60
2019-02-03T05:02:11.695Z,1.52
2019-02-03T05:03:11.685Z,1.59
2019-02-03T05:04:11.678Z,1.59
2019-02-03T05:05:11.670Z,1.62
2019-02-03T05:06:11.660Z,1.63
2019-02-03T05:07:11.648Z,1.58
2019-02-03T05:08:11.640Z,1.58
2019-02-03T05:09:11.646Z,1.55
2019-02-03T05:10:11.622Z,1.56
2019-02-03T05:11:11.614Z,1.60
2019-02-03T05:12:11.604Z,1.63
2019-02-03T05:13:11.594Z,1.50
2019-02-03T05:14:11.587Z,1.59
2019-02-03T05:15:11.574Z,1.50
2019-02-03T05:16:11.565Z,1.58
2019-02-03T05:17:11.557Z,1.58
2019-02-03T05:18:11.548Z,1.59
2019-02-03T05:19:11.538Z,1.59
2019-02-03T05:20:11.529Z,1.50
2019-02-03T05:21:11.522Z,1.55
2019-02-03T05:22:11.513Z,1.59
2019-02-03T05:23:11.502Z,1.59
2019-02-03T05:24:11.493Z,1.62
2019-02-03T05:25:11.485Z,1.59
2019-02-03T05:26:11.475Z,1.60
2019-02-03T05:27:11.465Z,1.60
2019-02-03T05:28:11.456Z,1.62
2019-02-03T05:29:11.447Z,1.66
2019-02-03T05:30:11.437Z,1.66
2019-02-03T05:31:11.438Z,1.66
2019-02-03T05:32:11.420Z,1.71
2019-02-03T05:33:11.410Z,1.66
2019-02-03T05:34:11.401Z,1.66
2019-02-03T05:35:11.397Z,1.62
2019-02-03T05:36:11.384Z,1.63
2019-02-03T05:37:11.372Z,1.53
2019-02-03T05:38:11.363Z,1.59
2019-02-03T05:39:24.013Z,1.52
2019-02-03T05:40:11.346Z,1.55
2019-02-03T05:41:11.336Z,1.53
2019-02-03T05:42:11.326Z,1.55
2019-02-03T05:43:11.314Z,1.55
2019-02-03T05:44:11.306Z,1.50
2019-02-03T05:45:11.299Z,1.48
2019-02-03T05:46:11.293Z,1.44
2019-02-03T05:47:11.279Z,1.55
2019-02-03T05:48:11.268Z,1.50
2019-02-03T05:49:11.261Z,1.52
2019-02-03T05:50:11.252Z,1.53
2019-02-03T05:51:11.242Z,1.50
2019-02-03T05:52:11.232Z,1.49
2019-02-03T05:53:11.223Z,1.50
2019-02-03T05:54:11.214Z,1.55
2019-02-03T05:55:11.206Z,1.50
2019-02-03T05:56:11.194Z,1.59
2019-02-03T05:57:11.184Z,1.50
2019-02-03T05:58:11.178Z,1.50
2019-02-03T05:59:11.166Z,1.58
2019-02-03T06:00:11.159Z,1.55
2019-02-03T06:01:11.149Z,1.53
2019-02-03T06:02:11.140Z,1.66
2019-02-03T06:03:11.174Z,1.62
2019-02-03T06:04:11.120Z,1.55
2019-02-03T06:05:11.111Z,1.53
2019-02-03T06:06:11.102Z,1.63
2019-02-03T06:07:11.093Z,1.67
2019-02-03T06:08:11.083Z,1.68
2019-02-03T06:09:11.073Z,1.74
2019-02-03T06:10:11.064Z,1.68
2019-02-03T06:11:11.058Z,1.62
2019-02-03T06:12:11.045Z,1.68
2019-02-03T06:13:11.040Z,1.68
2019-02-03T06:14:11.029Z,1.78
2019-02-03T06:15:11.019Z,1.71
2019-02-03T06:16:11.009Z,1.76
2019-02-03T06:17:10.999Z,1.73
2019-02-03T06:18:10.991Z,1.67
2019-02-03T06:19:10.980Z,1.67
2019-02-03T06:20:10.973Z,1.68
2019-02-03T06:21:10.962Z,1.63
2019-02-03T06:22:10.952Z,1.56
2019-02-03T06:23:10.943Z,1.59
2019-02-03T06:24:10.934Z,1.55
2019-02-03T06:25:10.926Z,1.58
2019-02-03T06:26:10.916Z,1.60
2019-02-03T06:27:10.907Z,1.67
2019-02-03T06:28:10.897Z,1.60
2019-02-03T06:29:10.886Z,1.68
2019-02-03T06:30:10.877Z,1.67
2019-02-03T06:31:13.988Z,1.63
2019-02-03T06:32:10.868Z,1.56
2019-02-03T06:33:10.850Z,1.56
2019-02-03T06:34:10.841Z,1.60
2019-02-03T06:35:10.830Z,1.66
2019-02-03T06:36:10.833Z,1.59
2019-02-03T06:37:10.813Z,1.66
2019-02-03T06:38:10.802Z,1.52
2019-02-03T06:39:10.792Z,1.49
2019-02-03T06:40:10.786Z,1.55
2019-02-03T06:41:10.774Z,1.48
2019-02-03T06:42:10.765Z,1.49
2019-02-03T06:43:10.753Z,1.50
2019-02-03T06:44:10.745Z,1.48
2019-02-03T06:45:10.739Z,1.41
2019-02-03T06:46:10.729Z,1.42
2019-02-03T06:47:10.714Z,1.38
2019-02-03T06:48:10.707Z,1.44
2019-02-03T06:49:10.698Z,1.44
2019-02-03T06:50:10.689Z,1.35
2019-02-03T06:51:10.679Z,1.42
2019-02-03T06:52:10.669Z,1.38
2019-02-03T06:53:10.662Z,1.40
2019-02-03T06:54:10.653Z,1.42
2019-02-03T06:55:10.639Z,1.40
2019-02-03T06:56:10.630Z,1.53
2019-02-03T06:57:10.625Z,1.48
2019-02-03T06:58:10.612Z,1.44
2019-02-03T06:59:10.601Z,1.48
2019-02-03T07:00:10.591Z,1.50
2019-02-03T07:01:10.583Z,1.40
2019-02-03T07:02:10.578Z,1.41
2019-02-03T07:03:10.563Z,1.37
2019-02-03T07:04:10.553Z,1.24
2019-02-03T07:05:10.553Z,1.22
2019-02-03T07:06:10.534Z,1.24
2019-02-03T07:07:10.524Z,1.17
2019-02-03T07:08:10.515Z,1.28
2019-02-03T07:09:10.504Z,1.22
2019-02-03T07:10:10.494Z,1.23
2019-02-03T07:11:10.484Z,1.13
2019-02-03T07:12:10.476Z,1.12
2019-02-03T07:13:10.466Z,1.13
2019-02-03T07:14:10.455Z,1.02
2019-02-03T07:15:10.446Z,1.01
2019-02-03T07:16:10.435Z,1.02
2019-02-03T07:17:10.427Z,1.05
2019-02-03T07:18:10.416Z,1.05
2019-02-03T07:19:10.406Z,0.98
2019-02-03T07:20:10.400Z,0.99
2019-02-03T07:21:10.387Z,0.98
2019-02-03T07:22:10.377Z,0.94
2019-02-03T07:23:10.367Z,1.02
2019-02-03T07:24:10.357Z,1.05
2019-02-03T07:25:10.348Z,0.99
2019-02-03T07:26:10.338Z,0.92
2019-02-03T07:27:11.968Z,0.95
2019-02-03T07:28:10.317Z,0.87
2019-02-03T07:29:10.307Z,0.94
2019-02-03T07:30:10.298Z,0.92
2019-02-03T07:31:10.287Z,0.87
2019-02-03T07:32:10.277Z,0.94
2019-02-03T07:33:10.266Z,0.98
2019-02-03T07:34:10.256Z,0.86
2019-02-03T07:35:10.405Z,0.91
2019-02-03T07:36:10.238Z,0.88
2019-02-03T07:37:10.226Z,0.77
2019-02-03T07:38:10.725Z,0.76
2019-02-03T07:39:10.205Z,0.83
2019-02-03T07:40:12.470Z,0.81
2019-02-03T07:41:10.186Z,0.83
2019-02-03T07:42:10.176Z,0.76
2019-02-03T07:43:10.166Z,0.80
2019-02-03T07:44:10.155Z,0.86
2019-02-03T07:45:10.146Z,0.80
2019-02-03T07:46:10.141Z,0.84
2019-02-03T07:47:10.127Z,0.87
2019-02-03T07:48:10.116Z,0.83
2019-02-03T07:49:10.105Z,0.87
2019-02-03T07:50:10.096Z,0.86
2019-02-03T07:51:10.084Z,0.94
2019-02-03T07:52:10.157Z,0.95
2019-02-03T07:53:10.067Z,1.01
2019-02-03T07:54:10.056Z,1.12
2019-02-03T07:55:10.047Z,1.13
2019-02-03T07:56:10.036Z,1.13
2019-02-03T07:57:10.027Z,1.10
2019-02-03T07:58:12.325Z,1.28
2019-02-03T07:59:10.004Z,1.26
2019-02-03T08:00:09.994Z,1.23
2019-02-03T08:01:09.985Z,1.30
2019-02-03T08:02:09.977Z,1.32
2019-02-03T08:03:09.965Z,1.40
2019-02-03T08:04:09.955Z,1.37
2019-02-03T08:05:09.945Z,1.41
2019-02-03T08:06:09.937Z,1.48
2019-02-03T08:07:09.927Z,1.58
2019-02-03T08:08:09.916Z,1.41
2019-02-03T08:09:09.907Z,1.56
2019-02-03T08:10:09.898Z,1.53
2019-02-03T08:11:09.887Z,1.50
2019-02-03T08:12:09.878Z,1.55
2019-02-03T08:13:09.869Z,1.49
2019-02-03T08:14:09.859Z,1.56
2019-02-03T08:15:09.847Z,1.52
2019-02-03T08:16:09.839Z,1.55
2019-02-03T08:17:09.830Z,1.55
2019-02-03T08:18:09.819Z,1.59
2019-02-03T08:19:09.811Z,1.55
2019-02-03T08:20:09.800Z,1.45
2019-02-03T08:21:09.792Z,1.52
2019-02-03T08:22:09.782Z,1.56
2019-02-03T08:23:09.771Z,1.48
2019-02-03T08:24:09.886Z,1.48
2019-02-03T08:25:09.757Z,1.56
2019-02-03T08:26:09.743Z,1.56
2019-02-03T08:27:09.734Z,1.48
2019-02-03T08:28:09.724Z,1.56
2019-02-03T08:29:09.715Z,1.50
2019-02-03T08:30:09.706Z,1.59
2019-02-03T08:31:09.696Z,1.58
2019-02-03T08:32:09.690Z,1.63
2019-02-03T08:33:09.678Z,1.59
2019-02-03T08:34:09.669Z,1.71
2019-02-03T08:35:09.658Z,1.71
2019-02-03T08:36:09.650Z,1.71
2019-02-03T08:37:09.656Z,1.80
2019-02-03T08:38:09.630Z,1.74
2019-02-03T08:39:09.622Z,1.80
2019-02-03T08:40:09.612Z,1.85
2019-02-03T08:41:09.603Z,1.85
2019-02-03T08:42:09.594Z,1.84
2019-02-03T08:43:09.584Z,1.84
2019-02-03T08:44:09.578Z,1.84
2019-02-03T08:45:09.566Z,1.84
2019-02-03T08:46:09.557Z,1.81
2019-02-03T08:47:09.547Z,1.87
2019-02-03T08:48:09.537Z,1.87
2019-02-03T08:49:09.529Z,1.92
2019-02-03T08:50:09.519Z,1.99
2019-02-03T08:51:09.510Z,1.97
2019-02-03T08:52:09.500Z,1.99
2019-02-03T08:53:09.493Z,1.89
2019-02-03T08:54:09.484Z,1.92
2019-02-03T08:55:09.472Z,1.94
2019-02-03T08:56:09.464Z,1.94
2019-02-03T08:57:09.454Z,1.94
2019-02-03T08:58:09.447Z,2.04
2019-02-03T08:59:09.438Z,1.94
2019-02-03T09:00:09.428Z,1.97
2019-02-03T09:01:09.417Z,2.08
2019-02-03T09:02:09.410Z,2.04
2019-02-03T09:03:09.399Z,2.11
2019-02-03T09:04:09.391Z,2.08
2019-02-03T09:05:09.383Z,2.22
2019-02-03T09:06:09.373Z,2.17
2019-02-03T09:07:09.364Z,2.20
2019-02-03T09:08:09.398Z,2.28
2019-02-03T09:09:09.345Z,2.15
2019-02-03T09:10:09.336Z,2.24
2019-02-03T09:11:09.328Z,2.26
2019-02-03T09:12:09.318Z,2.26
2019-02-03T09:13:09.311Z,2.29
2019-02-03T09:14:09.300Z,2.22
2019-02-03T09:15:09.294Z,2.20
2019-02-03T09:16:11.896Z,2.31
2019-02-03T09:17:09.272Z,2.26
2019-02-03T09:18:09.264Z,2.28
2019-02-03T09:19:09.258Z,2.38
2019-02-03T09:20:09.247Z,2.36
2019-02-03T09:21:09.238Z,2.43
2019-02-03T09:22:09.229Z,2.38
2019-02-03T09:23:09.221Z,2.36
2019-02-03T09:24:09.212Z,2.46
2019-02-03T09:25:09.202Z,2.42
2019-02-03T09:26:09.193Z,2.36
2019-02-03T09:27:09.184Z,2.42
2019-02-03T09:28:09.177Z,2.44
2019-02-03T09:29:09.171Z,2.47
2019-02-03T09:30:09.158Z,2.47
2019-02-03T09:31:09.150Z,2.33
2019-02-03T09:32:11.176Z,2.43
2019-02-03T09:33:09.133Z,2.46
2019-02-03T09:34:09.125Z,2.44
2019-02-03T09:35:09.114Z,2.47
2019-02-03T09:36:09.108Z,2.49
2019-02-03T09:37:09.098Z,2.60
2019-02-03T09:38:09.090Z,2.61
2019-02-03T09:39:09.080Z,2.57
2019-02-03T09:40:09.072Z,2.49
2019-02-03T09:41:09.063Z,2.50
2019-02-03T09:42:09.055Z,2.49
2019-02-03T09:43:09.047Z,2.60
2019-02-03T09:44:09.038Z,2.64
2019-02-03T09:45:09.028Z,2.64
2019-02-03T09:46:09.020Z,2.82
2019-02-03T09:47:09.011Z,2.79
2019-02-03T09:48:09.003Z,2.80
2019-02-03T09:49:08.993Z,2.80
2019-02-03T09:50:08.987Z,2.86
2019-02-03T09:51:08.976Z,2.79
2019-02-03T09:52:08.966Z,2.83
2019-02-03T09:53:08.960Z,2.89
2019-02-03T09:54:08.950Z,2.80
2019-02-03T09:55:08.945Z,2.95
2019-02-03T09:56:08.934Z,2.89
2019-02-03T09:57:08.926Z,2.93
2019-02-03T09:58:08.918Z,2.92
2019-02-03T09:59:08.908Z,3.04
2019-02-03T10:00:08.899Z,3.03
2019-02-03T10:01:08.892Z,3.00
2019-02-03T10:02:08.883Z,2.98
2019-02-03T10:03:08.874Z,3.08
2019-02-03T10:04:08.867Z,3.08
2019-02-03T10:05:08.858Z,3.08
2019-02-03T10:06:08.850Z,3.08
2019-02-03T10:07:08.843Z,3.21
2019-02-03T10:08:08.832Z,3.16
2019-02-03T10:09:08.827Z,3.18
2019-02-03T10:10:08.817Z,3.22
2019-02-03T10:11:12.177Z,3.28
2019-02-03T10:12:08.800Z,3.29
2019-02-03T10:13:08.791Z,3.31
2019-02-03T10:14:08.795Z,3.55
2019-02-03T10:15:08.773Z,3.55
2019-02-03T10:16:08.766Z,3.55
2019-02-03T10:17:08.763Z,3.66
2019-02-03T10:18:08.751Z,3.66
2019-02-03T10:19:08.742Z,3.66
2019-02-03T10:20:08.733Z,3.80
2019-02-03T10:21:08.725Z,4.06
2019-02-03T10:22:08.719Z,4.53
2019-02-03T10:23:08.712Z,5.39
2019-02-03T10:24:08.702Z,5.86
2019-02-03T10:25:08.696Z,6.08
2019-02-03T10:26:08.688Z,6.64
2019-02-03T10:27:08.683Z,7.15
2019-02-03T10:28:08.676Z,7.56
2019-02-03T10:29:08.669Z,7.97
2019-02-03T10:30:08.666Z,8.67
2019-02-03T10:31:08.657Z,8.33
2019-02-03T10:32:08.655Z,7.93
2019-02-03T10:33:08.650Z,8.46
2019-02-03T10:34:08.646Z,8.87
2019-02-03T10:35:08.641Z,8.46
2019-02-03T10:36:08.644Z,8.64
2019-02-03T10:37:08.635Z,8.85
2019-02-03T10:38:08.637Z,9.25
2019-02-03T10:39:08.635Z,8.85
2019-02-03T10:40:08.623Z,8.85
2019-02-03T10:41:08.621Z,8.78
2019-02-03T10:42:08.619Z,8.89
2019-02-03T10:43:08.616Z,8.73
2019-02-03T10:44:08.613Z,9.04
2019-02-03T10:45:08.611Z,9.62
2019-02-03T10:46:08.609Z,9.66
2019-02-03T10:47:08.606Z,8.99
2019-02-03T10:48:08.711Z,8.64
2019-02-03T10:49:08.658Z,8.74
2019-02-03T10:50:08.599Z,8.78
2019-02-03T10:51:08.595Z,9.00
2019-02-03T10:52:08.744Z,8.99
2019-02-03T10:53:08.593Z,8.74
2019-02-03T10:54:08.592Z,8.41
2019-02-03T10:55:08.588Z,8.09
2019-02-03T10:56:08.586Z,8.20
2019-02-03T10:57:08.585Z,8.38
2019-02-03T10:58:08.583Z,8.79
2019-02-03T10:59:08.582Z,8.67
2019-02-03T11:00:17.885Z,8.34
2019-02-03T11:01:08.578Z,8.31
2019-02-03T11:02:08.575Z,8.55
2019-02-03T11:03:08.574Z,8.19
2019-02-03T11:04:08.571Z,8.31
2019-02-03T11:05:08.571Z,8.41
2019-02-03T11:06:08.568Z,8.34
2019-02-03T11:07:08.572Z,8.06
2019-02-03T11:08:08.564Z,7.83
2019-02-03T11:09:08.563Z,7.54
2019-02-03T11:10:08.561Z,7.29
2019-02-03T11:11:08.558Z,6.88
2019-02-03T11:12:08.556Z,6.51
2019-02-03T11:13:08.553Z,6.49
2019-02-03T11:14:08.553Z,6.27
2019-02-03T11:15:08.548Z,5.99
2019-02-03T11:16:08.645Z,5.93
2019-02-03T11:17:08.543Z,5.98
2019-02-03T11:18:08.541Z,6.09
2019-02-03T11:19:08.538Z,6.16
2019-02-03T11:20:08.537Z,6.51
2019-02-03T11:21:08.621Z,6.87
2019-02-03T11:22:08.536Z,7.15
2019-02-03T11:23:08.525Z,7.60
2019-02-03T11:24:08.523Z,7.83
2019-02-03T11:25:08.517Z,7.47
2019-02-03T11:26:08.514Z,6.66
2019-02-03T11:27:08.516Z,6.44
2019-02-03T11:28:08.508Z,6.11
2019-02-03T11:29:08.504Z,6.19
2019-02-03T11:30:08.500Z,6.12
2019-02-03T11:31:08.495Z,6.14
2019-02-03T11:32:08.492Z,6.20
2019-02-03T11:33:09.611Z,6.07
2019-02-03T11:34:08.486Z,5.86
2019-02-03T11:35:08.480Z,5.62
2019-02-03T11:36:08.478Z,5.73
2019-02-03T11:37:08.474Z,5.80
2019-02-03T11:38:08.473Z,5.76
2019-02-03T11:39:08.465Z,5.79
2019-02-03T11:40:08.463Z,5.82
2019-02-03T11:41:08.457Z,5.83
2019-02-03T11:42:08.453Z,5.80
2019-02-03T11:43:08.449Z,5.62
2019-02-03T11:44:08.444Z,5.51
2019-02-03T11:45:08.439Z,5.36
2019-02-03T11:46:08.437Z,5.26
2019-02-03T11:47:08.435Z,5.18
2019-02-03T11:48:08.477Z,5.23
2019-02-03T11:49:08.423Z,5.65
2019-02-03T11:50:08.417Z,6.11
2019-02-03T11:51:08.412Z,6.62
2019-02-03T11:52:08.411Z,6.75
2019-02-03T11:53:08.404Z,6.82
2019-02-03T11:54:08.401Z,6.72
2019-02-03T11:55:08.395Z,6.31
2019-02-03T11:56:08.391Z,6.26
2019-02-03T11:57:08.387Z,6.26
2019-02-03T11:58:08.381Z,6.46
2019-02-03T11:59:08.378Z,6.45
2019-02-03T12:00:08.373Z,6.77
2019-02-03T12:01:08.366Z,7.20
2019-02-03T12:02:08.362Z,7.36
2019-02-03T12:03:08.358Z,7.48
2019-02-03T12:04:08.353Z,7.31
2019-02-03T12:05:08.349Z,7.13
2019-02-03T12:06:08.346Z,6.75
2019-02-03T12:07:08.338Z,6.38
2019-02-03T12:08:08.333Z,6.24
2019-02-03T12:09:08.330Z,6.45
2019-02-03T12:10:08.324Z,6.44
2019-02-03T12:11:08.320Z,6.60
2019-02-03T12:12:08.314Z,6.46
2019-02-03T12:13:08.311Z,6.59
2019-02-03T12:14:08.307Z,6.59
2019-02-03T12:15:08.300Z,6.39
2019-02-03T12:16:08.296Z,6.39
2019-02-03T12:17:08.292Z,6.48
2019-02-03T12:18:08.287Z,6.41
2019-02-03T12:19:08.282Z,6.42
2019-02-03T12:20:08.281Z,6.57
2019-02-03T12:21:08.272Z,6.57
2019-02-03T12:22:08.269Z,6.63
2019-02-03T12:23:08.263Z,6.66
2019-02-03T12:24:08.262Z,6.56
2019-02-03T12:25:08.252Z,6.66
2019-02-03T12:26:08.249Z,6.48
2019-02-03T12:27:08.244Z,6.62
2019-02-03T12:28:08.292Z,6.48
2019-02-03T12:29:08.233Z,6.45
2019-02-03T12:30:08.229Z,6.54
2019-02-03T12:31:08.224Z,6.59
2019-02-03T12:32:08.218Z,6.52
2019-02-03T12:33:08.215Z,6.48
2019-02-03T12:34:08.211Z,6.33
2019-02-03T12:35:08.204Z,6.45
2019-02-03T12:36:08.198Z,6.41
2019-02-03T12:37:08.195Z,6.46
2019-02-03T12:38:08.194Z,6.39
2019-02-03T12:39:08.183Z,6.45
2019-02-03T12:40:08.178Z,6.35
2019-02-03T12:41:08.174Z,6.31
2019-02-03T12:42:13.086Z,6.30
2019-02-03T12:43:08.163Z,6.24
2019-02-03T12:44:08.158Z,6.17
2019-02-03T12:45:08.153Z,6.17
2019-02-03T12:46:08.150Z,6.27
2019-02-03T12:47:08.152Z,6.05
2019-02-03T12:48:08.138Z,5.99
2019-02-03T12:49:08.212Z,5.87
2019-02-03T12:50:08.128Z,6.04
2019-02-03T12:51:08.128Z,6.04
2019-02-03T12:52:08.117Z,6.07
2019-02-03T12:53:08.113Z,6.16
2019-02-03T12:54:08.108Z,6.16
2019-02-03T12:55:08.102Z,6.12
2019-02-03T12:56:08.095Z,6.02
2019-02-03T12:57:08.090Z,6.01
2019-02-03T12:58:08.086Z,6.11
2019-02-03T12:59:08.079Z,6.01
2019-02-03T13:00:08.075Z,6.02
2019-02-03T13:01:08.088Z,6.07
2019-02-03T13:02:08.190Z,6.16
2019-02-03T13:03:08.058Z,6.05
2019-02-03T13:04:08.053Z,6.14
2019-02-03T13:05:08.046Z,6.33
2019-02-03T13:06:08.268Z,6.30
2019-02-03T13:07:08.036Z,6.30
2019-02-03T13:08:08.031Z,6.20
2019-02-03T13:09:08.027Z,6.28
2019-02-03T13:10:16.334Z,6.26
2019-02-03T13:11:08.016Z,6.30
2019-02-03T13:12:08.010Z,6.30
2019-02-03T13:13:08.005Z,6.20
2019-02-03T13:14:07.999Z,6.26
2019-02-03T13:15:07.993Z,6.11
2019-02-03T13:16:07.988Z,6.04
2019-02-03T13:17:07.982Z,6.05
2019-02-03T13:18:07.977Z,5.99